sensor_id;sensor_type;location;lat;lon;timestamp;temperature;humidity
2623;DHT22;1321;48.690;9.022;2023-03-16T02:49:25;3.70;99.90
2623;DHT22;1321;48.690;9.022;2023-03-16T02:51:54;3.70;1.00
2623;DHT22;1321;48.690;9.022;2023-03-16T02:54:23;3.80;56.00
2623;DHT22;1321;48.690;9.022;2023-03-16T02:56:51;3.80;1.00
2623;DHT22;1321;48.690;9.022;2023-03-16T02:59:19;3.80;35.50
2623;DHT22;1321;48.690;9.022;2023-03-16T03:01:48;3.80;1.00
2623;DHT22;1321;48.690;9.022;2023-03-16T03:04:17;3.80;1.00
2623;DHT22;1321;48.690;9.022;2023-03-16T03:06:47;3.80;1.00
2623;DHT22;1321;48.690;9.022;2023-03-16T03:09:16;3.80;1.00
2623;DHT22;1321;48.690;9.022;2023-03-16T03:11:44;3.80;1.00
2623;DHT22;1321;48.690;9.022;2023-03-16T03:14:13;3.70;1.00
2623;DHT22;1321;48.690;9.022;2023-03-16T03:16:42;3.60;99.90
2623;DHT22;1321;48.690;9.022;2023-03-16T03:19:12;3.60;99.90
2623;DHT22;1321;48.690;9.022;2023-03-16T03:21:41;3.50;99.90
2623;DHT22;1321;48.690;9.022;2023-03-16T03:24:11;3.50;1.00
2623;DHT22;1321;48.690;9.022;2023-03-16T03:26:39;3.60;1.00
2623;DHT22;1321;48.690;9.022;2023-03-16T03:29:07;3.60;1.00
2623;DHT22;1321;48.690;9.022;2023-03-16T03:31:36;3.60;99.90
2623;DHT22;1321;48.690;9.022;2023-03-16T03:34:04;3.50;99.90
2623;DHT22;1321;48.690;9.022;2023-03-16T03:36:33;3.30;1.00
2623;DHT22;1321;48.690;9.022;2023-03-16T03:39:01;3.20;1.00
2623;DHT22;1321;48.690;9.022;2023-03-16T03:41:32;3.20;99.90
2623;DHT22;1321;48.690;9.022;2023-03-16T03:44:00;3.20;99.90
2623;DHT22;1321;48.690;9.022;2023-03-16T03:46:29;3.20;99.90
2623;DHT22;1321;48.690;9.022;2023-03-16T03:48:57;3.30;99.90
2623;DHT22;1321;48.690;9.022;2023-03-16T03:51:29;3.10;99.90
2623;DHT22;1321;48.690;9.022;2023-03-16T03:53:58;3.20;99.90
2623;DHT22;1321;48.690;9.022;2023-03-16T03:56:26;3.20;99.90
2623;DHT22;1321;48.690;9.022;2023-03-16T03:58:55;3.10;99.90
2623;DHT22;1321;48.690;9.022;2023-03-16T04:01:24;3.00;99.90
2623;DHT22;1321;48.690;9.022;2023-03-16T04:03:52;3.00;99.90
2623;DHT22;1321;48.690;9.022;2023-03-16T04:06:20;3.10;99.90
2623;DHT22;1321;48.690;9.022;2023-03-16T04:08:48;3.00;1.00
2623;DHT22;1321;48.690;9.022;2023-03-16T04:11:18;3.10;1.00
2623;DHT22;1321;48.690;9.022;2023-03-16T04:13:46;3.00;99.90
2623;DHT22;1321;48.690;9.022;2023-03-16T04:16:16;3.00;99.90
2623;DHT22;1321;48.690;9.022;2023-03-16T04:18:44;3.10;99.90
2623;DHT22;1321;48.690;9.022;2023-03-16T04:21:14;3.10;99.90
2623;DHT22;1321;48.690;9.022;2023-03-16T04:23:43;3.00;99.90
2623;DHT22;1321;48.690;9.022;2023-03-16T04:26:12;3.00;99.90
2623;DHT22;1321;48.690;9.022;2023-03-16T04:28:40;3.10;99.90
2623;DHT22;1321;48.690;9.022;2023-03-16T04:31:09;3.20;99.90
2623;DHT22;1321;48.690;9.022;2023-03-16T04:33:39;3.20;99.90
2623;DHT22;1321;48.690;9.022;2023-03-16T04:36:09;3.10;99.90
2623;DHT22;1321;48.690;9.022;2023-03-16T04:38:37;3.10;99.90
2623;DHT22;1321;48.690;9.022;2023-03-16T04:41:06;3.20;1.00
2623;DHT22;1321;48.690;9.022;2023-03-16T04:43:34;3.20;99.90
2623;DHT22;1321;48.690;9.022;2023-03-16T04:46:03;3.10;99.90
2623;DHT22;1321;48.690;9.022;2023-03-16T04:48:32;3.00;99.90
2623;DHT22;1321;48.690;9.022;2023-03-16T04:51:02;3.00;99.90
2623;DHT22;1321;48.690;9.022;2023-03-16T04:53:31;2.90;99.90
2623;DHT22;1321;48.690;9.022;2023-03-16T04:56:00;2.80;99.90
2623;DHT22;1321;48.690;9.022;2023-03-16T04:58:28;2.90;99.90
2623;DHT22;1321;48.690;9.022;2023-03-16T05:00:56;2.80;99.90
2623;DHT22;1321;48.690;9.022;2023-03-16T05:03:24;2.70;99.90
2623;DHT22;1321;48.690;9.022;2023-03-16T05:05:52;2.70;99.90
2623;DHT22;1321;48.690;9.022;2023-03-16T05:08:22;2.80;99.90
2623;DHT22;1321;48.690;9.022;2023-03-16T05:10:50;2.70;99.90
2623;DHT22;1321;48.690;9.022;2023-03-16T05:13:23;2.70;99.90
2623;DHT22;1321;48.690;9.022;2023-03-16T05:15:51;2.70;99.90
2623;DHT22;1321;48.690;9.022;2023-03-16T05:18:20;2.70;99.90
2623;DHT22;1321;48.690;9.022;2023-03-16T05:20:49;2.70;99.90
2623;DHT22;1321;48.690;9.022;2023-03-16T05:23:17;2.60;99.90
2623;DHT22;1321;48.690;9.022;2023-03-16T05:25:47;2.60;99.90
2623;DHT22;1321;48.690;9.022;2023-03-16T05:28:16;2.70;99.90
2623;DHT22;1321;48.690;9.022;2023-03-16T05:30:44;2.60;99.90
2623;DHT22;1321;48.690;9.022;2023-03-16T05:33:12;2.60;99.90
2623;DHT22;1321;48.690;9.022;2023-03-16T05:35:40;2.60;99.90
2623;DHT22;1321;48.690;9.022;2023-03-16T05:38:08;2.50;99.90
2623;DHT22;1321;48.690;9.022;2023-03-16T05:40:37;2.50;99.90
2623;DHT22;1321;48.690;9.022;2023-03-16T05:43:07;2.60;99.90
2623;DHT22;1321;48.690;9.022;2023-03-16T05:45:35;2.50;99.90
2623;DHT22;1321;48.690;9.022;2023-03-16T05:48:03;2.60;99.90
2623;DHT22;1321;48.690;9.022;2023-03-16T05:50:32;2.60;99.90
2623;DHT22;1321;48.690;9.022;2023-03-16T05:53:00;2.60;99.90
2623;DHT22;1321;48.690;9.022;2023-03-16T05:55:28;2.70;99.90
2623;DHT22;1321;48.690;9.022;2023-03-16T05:57:56;2.70;99.90
2623;DHT22;1321;48.690;9.022;2023-03-16T06:00:26;2.70;99.90
2623;DHT22;1321;48.690;9.022;2023-03-16T06:02:56;2.70;99.90
2623;DHT22;1321;48.690;9.022;2023-03-16T06:05:24;2.80;99.90
2623;DHT22;1321;48.690;9.022;2023-03-16T06:07:54;2.80;99.90
2623;DHT22;1321;48.690;9.022;2023-03-16T06:10:22;2.80;99.90
2623;DHT22;1321;48.690;9.022;2023-03-16T06:12:52;2.70;99.90
2623;DHT22;1321;48.690;9.022;2023-03-16T06:15:20;2.70;99.90
2623;DHT22;1321;48.690;9.022;2023-03-16T06:17:52;2.70;99.90
2623;DHT22;1321;48.690;9.022;2023-03-16T06:20:20;2.80;99.90
2623;DHT22;1321;48.690;9.022;2023-03-16T06:22:48;2.80;99.90
2623;DHT22;1321;48.690;9.022;2023-03-16T06:25:16;2.90;99.90
2623;DHT22;1321;48.690;9.022;2023-03-16T06:27:44;2.90;99.90
2623;DHT22;1321;48.690;9.022;2023-03-16T06:30:15;2.80;99.90
2623;DHT22;1321;48.690;9.022;2023-03-16T06:32:43;2.90;99.90
2623;DHT22;1321;48.690;9.022;2023-03-16T06:35:13;2.90;99.90
2623;DHT22;1321;48.690;9.022;2023-03-16T06:37:41;3.10;99.90
2623;DHT22;1321;48.690;9.022;2023-03-16T06:40:10;3.30;99.90
2623;DHT22;1321;48.690;9.022;2023-03-16T06:42:39;3.60;99.90
2623;DHT22;1321;48.690;9.022;2023-03-16T06:45:08;3.80;99.90
2623;DHT22;1321;48.690;9.022;2023-03-16T06:47:37;4.00;99.90
2623;DHT22;1321;48.690;9.022;2023-03-16T06:50:06;4.20;99.90
2623;DHT22;1321;48.690;9.022;2023-03-16T06:52:36;4.30;99.90
2623;DHT22;1321;48.690;9.022;2023-03-16T06:55:05;4.40;99.90
2623;DHT22;1321;48.690;9.022;2023-03-16T06:57:33;4.30;99.90
2623;DHT22;1321;48.690;9.022;2023-03-16T07:00:01;4.40;99.90
2623;DHT22;1321;48.690;9.022;2023-03-16T07:02:30;4.40;99.90
2623;DHT22;1321;48.690;9.022;2023-03-16T07:05:01;4.50;99.90
2623;DHT22;1321;48.690;9.022;2023-03-16T07:07:29;4.60;99.90
2623;DHT22;1321;48.690;9.022;2023-03-16T07:09:59;4.70;99.90
2623;DHT22;1321;48.690;9.022;2023-03-16T07:12:27;4.80;99.90
2623;DHT22;1321;48.690;9.022;2023-03-16T07:14:55;4.90;99.90
2623;DHT22;1321;48.690;9.022;2023-03-16T07:17:23;5.10;1.00
2623;DHT22;1321;48.690;9.022;2023-03-16T07:19:51;5.10;1.00
2623;DHT22;1321;48.690;9.022;2023-03-16T07:22:19;5.20;1.00
2623;DHT22;1321;48.690;9.022;2023-03-16T07:24:48;5.30;1.00
2623;DHT22;1321;48.690;9.022;2023-03-16T07:27:23;5.40;1.00
2623;DHT22;1321;48.690;9.022;2023-03-16T07:29:51;5.50;1.00
2623;DHT22;1321;48.690;9.022;2023-03-16T07:32:20;5.50;1.00
2623;DHT22;1321;48.690;9.022;2023-03-16T07:34:48;5.60;1.00
2623;DHT22;1321;48.690;9.022;2023-03-16T07:37:16;5.60;1.00
2623;DHT22;1321;48.690;9.022;2023-03-16T07:39:51;5.70;1.00
2623;DHT22;1321;48.690;9.022;2023-03-16T07:42:19;5.80;1.00
2623;DHT22;1321;48.690;9.022;2023-03-16T07:44:49;6.00;1.00
2623;DHT22;1321;48.690;9.022;2023-03-16T07:47:18;6.00;1.00
2623;DHT22;1321;48.690;9.022;2023-03-16T07:49:47;6.10;1.00
2623;DHT22;1321;48.690;9.022;2023-03-16T07:52:15;6.30;1.00
2623;DHT22;1321;48.690;9.022;2023-03-16T07:54:43;6.30;1.00
2623;DHT22;1321;48.690;9.022;2023-03-16T07:57:11;6.30;1.00
2623;DHT22;1321;48.690;9.022;2023-03-16T07:59:39;6.50;1.00
2623;DHT22;1321;48.690;9.022;2023-03-16T08:02:11;6.90;1.00
2623;DHT22;1321;48.690;9.022;2023-03-16T08:04:40;7.30;99.90
2623;DHT22;1321;48.690;9.022;2023-03-16T08:07:09;7.70;99.90
2623;DHT22;1321;48.690;9.022;2023-03-16T08:09:38;8.10;99.90
2623;DHT22;1321;48.690;9.022;2023-03-16T08:12:08;8.40;99.90
2623;DHT22;1321;48.690;9.022;2023-03-16T08:14:37;8.50;99.90
2623;DHT22;1321;48.690;9.022;2023-03-16T08:17:05;8.90;99.90
2623;DHT22;1321;48.690;9.022;2023-03-16T08:19:35;9.20;99.90
2623;DHT22;1321;48.690;9.022;2023-03-16T08:22:03;9.40;99.90
2623;DHT22;1321;48.690;9.022;2023-03-16T08:24:32;9.50;99.90
2623;DHT22;1321;48.690;9.022;2023-03-16T08:27:00;9.80;99.90
2623;DHT22;1321;48.690;9.022;2023-03-16T08:29:29;10.10;99.90
2623;DHT22;1321;48.690;9.022;2023-03-16T08:32:00;10.40;99.90
2623;DHT22;1321;48.690;9.022;2023-03-16T08:34:29;10.60;99.90
2623;DHT22;1321;48.690;9.022;2023-03-16T08:36:59;11.00;99.90
2623;DHT22;1321;48.690;9.022;2023-03-16T08:39:27;11.10;99.90
2623;DHT22;1321;48.690;9.022;2023-03-16T08:41:55;11.50;99.90
2623;DHT22;1321;48.690;9.022;2023-03-16T08:44:24;11.60;99.90
2623;DHT22;1321;48.690;9.022;2023-03-16T08:46:53;11.70;99.90
2623;DHT22;1321;48.690;9.022;2023-03-16T08:49:21;12.00;99.90
2623;DHT22;1321;48.690;9.022;2023-03-16T08:51:50;12.40;99.90
2623;DHT22;1321;48.690;9.022;2023-03-16T08:54:19;12.80;99.90
2623;DHT22;1321;48.690;9.022;2023-03-16T08:56:48;12.70;99.90
2623;DHT22;1321;48.690;9.022;2023-03-16T08:59:17;12.30;99.90
2623;DHT22;1321;48.690;9.022;2023-03-16T09:01:56;13.10;99.90
2623;DHT22;1321;48.690;9.022;2023-03-16T09:04:24;13.30;99.90
2623;DHT22;1321;48.690;9.022;2023-03-16T09:06:54;13.20;99.90
2623;DHT22;1321;48.690;9.022;2023-03-16T09:09:36;13.10;99.90
2623;DHT22;1321;48.690;9.022;2023-03-16T09:12:05;14.00;99.90
2623;DHT22;1321;48.690;9.022;2023-03-16T09:14:34;14.40;99.90
2623;DHT22;1321;48.690;9.022;2023-03-16T09:17:04;14.80;99.90
2623;DHT22;1321;48.690;9.022;2023-03-16T09:19:33;14.80;99.90
2623;DHT22;1321;48.690;9.022;2023-03-16T09:22:20;15.50;99.90
2623;DHT22;1321;48.690;9.022;2023-03-16T09:24:50;15.70;99.90
2623;DHT22;1321;48.690;9.022;2023-03-16T09:27:18;15.80;99.90
2623;DHT22;1321;48.690;9.022;2023-03-16T09:29:48;16.20;99.90
2623;DHT22;1321;48.690;9.022;2023-03-16T09:32:18;17.20;99.90
2623;DHT22;1321;48.690;9.022;2023-03-16T09:34:47;17.60;99.90
2623;DHT22;1321;48.690;9.022;2023-03-16T09:37:15;18.10;99.90
2623;DHT22;1321;48.690;9.022;2023-03-16T09:39:43;18.70;99.90
2623;DHT22;1321;48.690;9.022;2023-03-16T09:42:17;18.70;99.90
2623;DHT22;1321;48.690;9.022;2023-03-16T09:44:56;18.90;99.90
2623;DHT22;1321;48.690;9.022;2023-03-16T09:47:28;18.20;99.90
2623;DHT22;1321;48.690;9.022;2023-03-16T09:50:00;16.40;98.50
2623;DHT22;1321;48.690;9.022;2023-03-16T09:52:36;16.10;95.50
2623;DHT22;1321;48.690;9.022;2023-03-16T09:55:13;15.40;91.30
2623;DHT22;1321;48.690;9.022;2023-03-16T09:57:48;14.60;81.40
2623;DHT22;1321;48.690;9.022;2023-03-16T10:00:21;15.20;91.70
2623;DHT22;1321;48.690;9.022;2023-03-16T10:03:01;15.70;93.40
2623;DHT22;1321;48.690;9.022;2023-03-16T10:05:33;16.10;95.00
2623;DHT22;1321;48.690;9.022;2023-03-16T10:08:09;15.50;93.60
2623;DHT22;1321;48.690;9.022;2023-03-16T10:10:58;15.40;90.60
2623;DHT22;1321;48.690;9.022;2023-03-16T10:13:36;15.40;90.60
2623;DHT22;1321;48.690;9.022;2023-03-16T10:16:11;15.60;91.60
2623;DHT22;1321;48.690;9.022;2023-03-16T10:18:43;15.80;92.30
2623;DHT22;1321;48.690;9.022;2023-03-16T10:21:14;16.00;99.90
2623;DHT22;1321;48.690;9.022;2023-03-16T10:23:43;15.70;90.40
2623;DHT22;1321;48.690;9.022;2023-03-16T10:26:14;16.50;95.00
2623;DHT22;1321;48.690;9.022;2023-03-16T10:28:46;17.30;98.90
2623;DHT22;1321;48.690;9.022;2023-03-16T10:31:16;17.20;97.50
2623;DHT22;1321;48.690;9.022;2023-03-16T10:33:48;18.20;99.90
2623;DHT22;1321;48.690;9.022;2023-03-16T10:36:24;18.80;99.90
2623;DHT22;1321;48.690;9.022;2023-03-16T10:38:55;20.30;99.90
2623;DHT22;1321;48.690;9.022;2023-03-16T10:41:27;20.60;99.90
2623;DHT22;1321;48.690;9.022;2023-03-16T10:43:58;21.40;99.90
2623;DHT22;1321;48.690;9.022;2023-03-16T10:46:37;22.20;99.90
2623;DHT22;1321;48.690;9.022;2023-03-16T10:49:19;23.10;99.90
2623;DHT22;1321;48.690;9.022;2023-03-16T10:51:48;23.40;99.90
2623;DHT22;1321;48.690;9.022;2023-03-16T10:54:23;23.40;99.90
2623;DHT22;1321;48.690;9.022;2023-03-16T10:56:54;23.60;99.90
2623;DHT22;1321;48.690;9.022;2023-03-16T10:59:29;23.90;99.90
2623;DHT22;1321;48.690;9.022;2023-03-16T11:02:01;23.20;99.90
2623;DHT22;1321;48.690;9.022;2023-03-16T11:04:31;23.40;99.90
2623;DHT22;1321;48.690;9.022;2023-03-16T11:06:59;24.70;99.90
2623;DHT22;1321;48.690;9.022;2023-03-16T11:09:32;25.30;99.90
2623;DHT22;1321;48.690;9.022;2023-03-16T11:12:12;26.10;99.90
2623;DHT22;1321;48.690;9.022;2023-03-16T11:14:44;26.30;99.90
2623;DHT22;1321;48.690;9.022;2023-03-16T11:17:18;26.20;99.90
2623;DHT22;1321;48.690;9.022;2023-03-16T11:19:51;25.50;99.90
2623;DHT22;1321;48.690;9.022;2023-03-16T11:22:22;24.50;99.90
2623;DHT22;1321;48.690;9.022;2023-03-16T11:24:54;25.70;99.90
2623;DHT22;1321;48.690;9.022;2023-03-16T11:27:25;25.60;99.90
2623;DHT22;1321;48.690;9.022;2023-03-16T11:30:08;26.20;99.90
2623;DHT22;1321;48.690;9.022;2023-03-16T11:32:39;25.60;99.90
2623;DHT22;1321;48.690;9.022;2023-03-16T11:35:12;25.20;99.90
2623;DHT22;1321;48.690;9.022;2023-03-16T11:37:54;22.60;99.90
2623;DHT22;1321;48.690;9.022;2023-03-16T11:40:37;19.50;79.80
2623;DHT22;1321;48.690;9.022;2023-03-16T11:43:26;17.40;48.10
2623;DHT22;1321;48.690;9.022;2023-03-16T11:46:09;16.20;36.20
2623;DHT22;1321;48.690;9.022;2023-03-16T11:48:42;15.90;33.10
2623;DHT22;1321;48.690;9.022;2023-03-16T11:51:22;15.70;29.60
2623;DHT22;1321;48.690;9.022;2023-03-16T11:54:04;15.40;25.10
2623;DHT22;1321;48.690;9.022;2023-03-16T11:56:42;14.90;21.10
2623;DHT22;1321;48.690;9.022;2023-03-16T11:59:42;14.60;18.90
2623;DHT22;1321;48.690;9.022;2023-03-16T12:02:38;14.20;16.30
2623;DHT22;1321;48.690;9.022;2023-03-16T12:05:35;14.40;18.30
2623;DHT22;1321;48.690;9.022;2023-03-16T12:08:15;14.40;17.50
2623;DHT22;1321;48.690;9.022;2023-03-16T12:10:48;14.10;13.80
2623;DHT22;1321;48.690;9.022;2023-03-16T12:13:31;14.00;14.80
2623;DHT22;1321;48.690;9.022;2023-03-16T12:16:05;13.90;13.80
2623;DHT22;1321;48.690;9.022;2023-03-16T12:18:43;14.10;15.80
2623;DHT22;1321;48.690;9.022;2023-03-16T12:21:14;14.30;18.40
2623;DHT22;1321;48.690;9.022;2023-03-16T12:23:50;14.30;18.50
2623;DHT22;1321;48.690;9.022;2023-03-16T12:26:22;14.00;15.70
2623;DHT22;1321;48.690;9.022;2023-03-16T12:28:51;13.70;13.10
2623;DHT22;1321;48.690;9.022;2023-03-16T12:31:26;13.80;13.90
2623;DHT22;1321;48.690;9.022;2023-03-16T12:34:03;13.70;12.20
2623;DHT22;1321;48.690;9.022;2023-03-16T12:37:05;13.70;12.80
2623;DHT22;1321;48.690;9.022;2023-03-16T12:40:08;13.80;13.60
2623;DHT22;1321;48.690;9.022;2023-03-16T12:42:49;13.70;12.90
2623;DHT22;1321;48.690;9.022;2023-03-16T12:45:26;14.00;16.70
2623;DHT22;1321;48.690;9.022;2023-03-16T12:48:02;14.20;18.50
2623;DHT22;1321;48.690;9.022;2023-03-16T12:50:34;14.20;29.30
2623;DHT22;1321;48.690;9.022;2023-03-16T12:53:28;14.10;16.70
2623;DHT22;1321;48.690;9.022;2023-03-16T12:56:07;14.00;16.60
2623;DHT22;1321;48.690;9.022;2023-03-16T12:58:39;14.30;18.90
2623;DHT22;1321;48.690;9.022;2023-03-16T13:01:10;14.40;24.80
2623;DHT22;1321;48.690;9.022;2023-03-16T13:03:40;14.50;21.10
2623;DHT22;1321;48.690;9.022;2023-03-16T13:06:18;14.00;15.80
2623;DHT22;1321;48.690;9.022;2023-03-16T13:08:50;13.90;16.20
2623;DHT22;1321;48.690;9.022;2023-03-16T13:11:19;13.90;15.30
2623;DHT22;1321;48.690;9.022;2023-03-16T13:13:49;14.00;16.70
2623;DHT22;1321;48.690;9.022;2023-03-16T13:16:27;14.00;15.60
2623;DHT22;1321;48.690;9.022;2023-03-16T13:18:56;14.00;15.70
2623;DHT22;1321;48.690;9.022;2023-03-16T13:21:36;13.80;13.50
2623;DHT22;1321;48.690;9.022;2023-03-16T13:24:25;13.80;13.80
2623;DHT22;1321;48.690;9.022;2023-03-16T13:26:58;14.00;15.60
2623;DHT22;1321;48.690;9.022;2023-03-16T13:29:29;14.10;26.80
2623;DHT22;1321;48.690;9.022;2023-03-16T13:31:59;13.90;14.20
2623;DHT22;1321;48.690;9.022;2023-03-16T13:34:31;13.50;11.20
2623;DHT22;1321;48.690;9.022;2023-03-16T13:37:01;13.40;10.00
2623;DHT22;1321;48.690;9.022;2023-03-16T13:39:32;13.60;11.40
2623;DHT22;1321;48.690;9.022;2023-03-16T13:42:02;13.80;13.50
2623;DHT22;1321;48.690;9.022;2023-03-16T13:44:31;14.00;15.30
2623;DHT22;1321;48.690;9.022;2023-03-16T13:47:04;14.20;19.10
2623;DHT22;1321;48.690;9.022;2023-03-16T13:49:33;14.20;28.30
2623;DHT22;1321;48.690;9.022;2023-03-16T13:52:14;14.20;16.60
2623;DHT22;1321;48.690;9.022;2023-03-16T13:54:48;14.20;15.60
2623;DHT22;1321;48.690;9.022;2023-03-16T13:57:20;14.30;17.40
2623;DHT22;1321;48.690;9.022;2023-03-16T13:59:49;14.20;16.30
2623;DHT22;1321;48.690;9.022;2023-03-16T14:02:22;14.30;17.80
2623;DHT22;1321;48.690;9.022;2023-03-16T14:04:50;14.30;16.50
2623;DHT22;1321;48.690;9.022;2023-03-16T14:07:20;14.10;15.70
2623;DHT22;1321;48.690;9.022;2023-03-16T14:09:50;13.80;12.80
2623;DHT22;1321;48.690;9.022;2023-03-16T14:12:19;13.90;13.10
2623;DHT22;1321;48.690;9.022;2023-03-16T14:14:49;14.00;14.40
2623;DHT22;1321;48.690;9.022;2023-03-16T14:17:23;13.70;11.40
2623;DHT22;1321;48.690;9.022;2023-03-16T14:19:57;13.60;11.30
2623;DHT22;1321;48.690;9.022;2023-03-16T14:22:31;13.70;23.40
2623;DHT22;1321;48.690;9.022;2023-03-16T14:25:00;13.60;22.10
2623;DHT22;1321;48.690;9.022;2023-03-16T14:27:40;13.70;11.90
2623;DHT22;1321;48.690;9.022;2023-03-16T14:30:15;13.70;11.40
2623;DHT22;1321;48.690;9.022;2023-03-16T14:32:54;13.70;12.30
2623;DHT22;1321;48.690;9.022;2023-03-16T14:35:26;13.70;11.10
2623;DHT22;1321;48.690;9.022;2023-03-16T14:37:56;13.60;9.40
2623;DHT22;1321;48.690;9.022;2023-03-16T14:40:27;13.50;9.10
2623;DHT22;1321;48.690;9.022;2023-03-16T14:42:58;13.60;9.90
2623;DHT22;1321;48.690;9.022;2023-03-16T14:45:31;13.40;8.90
2623;DHT22;1321;48.690;9.022;2023-03-16T14:48:03;13.60;10.10
2623;DHT22;1321;48.690;9.022;2023-03-16T14:50:33;13.50;9.00
2623;DHT22;1321;48.690;9.022;2023-03-16T14:53:03;13.40;8.50
2623;DHT22;1321;48.690;9.022;2023-03-16T14:55:31;13.60;10.30
2623;DHT22;1321;48.690;9.022;2023-03-16T14:58:00;13.70;11.10
2623;DHT22;1321;48.690;9.022;2023-03-16T15:00:28;13.70;10.40
2623;DHT22;1321;48.690;9.022;2023-03-16T15:03:11;13.70;9.90
2623;DHT22;1321;48.690;9.022;2023-03-16T15:05:41;13.70;21.30
2623;DHT22;1321;48.690;9.022;2023-03-16T15:08:15;13.80;11.00
2623;DHT22;1321;48.690;9.022;2023-03-16T15:10:44;13.70;10.80
2623;DHT22;1321;48.690;9.022;2023-03-16T15:13:14;13.70;11.30
2623;DHT22;1321;48.690;9.022;2023-03-16T15:16:00;13.80;11.40
2623;DHT22;1321;48.690;9.022;2023-03-16T15:18:30;13.70;11.10
2623;DHT22;1321;48.690;9.022;2023-03-16T15:20:59;13.70;9.70
2623;DHT22;1321;48.690;9.022;2023-03-16T15:23:29;13.70;9.90
2623;DHT22;1321;48.690;9.022;2023-03-16T15:25:58;13.70;10.20
2623;DHT22;1321;48.690;9.022;2023-03-16T15:28:28;13.40;7.50
2623;DHT22;1321;48.690;9.022;2023-03-16T15:30:58;13.50;7.80
2623;DHT22;1321;48.690;9.022;2023-03-16T15:33:27;13.20;5.80
2623;DHT22;1321;48.690;9.022;2023-03-16T15:35:57;13.20;5.60
2623;DHT22;1321;48.690;9.022;2023-03-16T15:38:27;12.90;3.60
2623;DHT22;1321;48.690;9.022;2023-03-16T15:40:57;13.00;5.90
2623;DHT22;1321;48.690;9.022;2023-03-16T15:43:26;13.20;5.80
2623;DHT22;1321;48.690;9.022;2023-03-16T15:45:56;13.20;6.70
2623;DHT22;1321;48.690;9.022;2023-03-16T15:48:24;13.30;7.20
2623;DHT22;1321;48.690;9.022;2023-03-16T15:50:55;13.30;7.20
2623;DHT22;1321;48.690;9.022;2023-03-16T15:53:24;13.30;7.40
2623;DHT22;1321;48.690;9.022;2023-03-16T15:56:01;13.20;5.60
2623;DHT22;1321;48.690;9.022;2023-03-16T15:58:31;13.20;6.30
2623;DHT22;1321;48.690;9.022;2023-03-16T16:01:00;13.10;6.60
2623;DHT22;1321;48.690;9.022;2023-03-16T16:03:29;13.10;6.70
2623;DHT22;1321;48.690;9.022;2023-03-16T16:05:57;13.10;5.90
2623;DHT22;1321;48.690;9.022;2023-03-16T16:08:25;13.10;6.70
2623;DHT22;1321;48.690;9.022;2023-03-16T16:10:54;13.10;5.90
2623;DHT22;1321;48.690;9.022;2023-03-16T16:13:27;13.00;5.80
2623;DHT22;1321;48.690;9.022;2023-03-16T16:16:10;13.00;6.70
2623;DHT22;1321;48.690;9.022;2023-03-16T16:18:39;13.00;6.30
2623;DHT22;1321;48.690;9.022;2023-03-16T16:21:14;12.90;6.20
2623;DHT22;1321;48.690;9.022;2023-03-16T16:23:44;12.90;5.60
2623;DHT22;1321;48.690;9.022;2023-03-16T16:26:22;12.90;5.80
2623;DHT22;1321;48.690;9.022;2023-03-16T16:28:58;12.80;5.70
2623;DHT22;1321;48.690;9.022;2023-03-16T16:31:29;12.60;4.00
2623;DHT22;1321;48.690;9.022;2023-03-16T16:33:57;12.70;4.80
2623;DHT22;1321;48.690;9.022;2023-03-16T16:36:25;12.70;5.70
2623;DHT22;1321;48.690;9.022;2023-03-16T16:38:58;12.70;5.30
2623;DHT22;1321;48.690;9.022;2023-03-16T16:41:28;12.50;4.40
2623;DHT22;1321;48.690;9.022;2023-03-16T16:43:59;12.50;4.50
2623;DHT22;1321;48.690;9.022;2023-03-16T16:46:36;12.50;4.30
2623;DHT22;1321;48.690;9.022;2023-03-16T16:49:11;12.40;5.00
2623;DHT22;1321;48.690;9.022;2023-03-16T16:51:41;12.40;5.30
2623;DHT22;1321;48.690;9.022;2023-03-16T16:54:16;12.40;5.50
2623;DHT22;1321;48.690;9.022;2023-03-16T16:56:45;12.40;6.60
2623;DHT22;1321;48.690;9.022;2023-03-16T16:59:16;12.40;6.90
2623;DHT22;1321;48.690;9.022;2023-03-16T17:01:46;12.30;6.50
2623;DHT22;1321;48.690;9.022;2023-03-16T17:04:18;12.20;6.30
2623;DHT22;1321;48.690;9.022;2023-03-16T17:06:49;12.10;7.30
2623;DHT22;1321;48.690;9.022;2023-03-16T17:09:21;12.00;6.60
2623;DHT22;1321;48.690;9.022;2023-03-16T17:11:49;12.10;8.30
2623;DHT22;1321;48.690;9.022;2023-03-16T17:14:20;12.00;8.90
2623;DHT22;1321;48.690;9.022;2023-03-16T17:16:49;12.00;10.00
2623;DHT22;1321;48.690;9.022;2023-03-16T17:19:21;12.00;10.10
2623;DHT22;1321;48.690;9.022;2023-03-16T17:21:50;12.00;11.20
2623;DHT22;1321;48.690;9.022;2023-03-16T17:24:18;12.10;12.20
2623;DHT22;1321;48.690;9.022;2023-03-16T17:26:49;12.00;12.80
2623;DHT22;1321;48.690;9.022;2023-03-16T17:29:21;12.00;13.20
2623;DHT22;1321;48.690;9.022;2023-03-16T17:31:50;12.00;14.10
2623;DHT22;1321;48.690;9.022;2023-03-16T17:34:21;12.00;14.90
2623;DHT22;1321;48.690;9.022;2023-03-16T17:36:51;12.00;15.20
2623;DHT22;1321;48.690;9.022;2023-03-16T17:39:21;12.00;15.90
2623;DHT22;1321;48.690;9.022;2023-03-16T17:41:53;11.90;16.40
2623;DHT22;1321;48.690;9.022;2023-03-16T17:44:32;11.90;16.10
2623;DHT22;1321;48.690;9.022;2023-03-16T17:47:01;11.80;16.90
2623;DHT22;1321;48.690;9.022;2023-03-16T17:49:29;11.70;17.80
2623;DHT22;1321;48.690;9.022;2023-03-16T17:51:57;11.70;17.90
2623;DHT22;1321;48.690;9.022;2023-03-16T17:54:26;11.70;19.00
2623;DHT22;1321;48.690;9.022;2023-03-16T17:56:54;11.70;20.70
2623;DHT22;1321;48.690;9.022;2023-03-16T17:59:24;11.70;21.70
2623;DHT22;1321;48.690;9.022;2023-03-16T18:01:53;11.70;22.50
2623;DHT22;1321;48.690;9.022;2023-03-16T18:04:23;11.70;22.50
2623;DHT22;1321;48.690;9.022;2023-03-16T18:06:51;11.70;22.90
2623;DHT22;1321;48.690;9.022;2023-03-16T18:09:20;11.70;35.40
2623;DHT22;1321;48.690;9.022;2023-03-16T18:11:50;11.70;23.80
2623;DHT22;1321;48.690;9.022;2023-03-16T18:14:27;11.60;24.30
2623;DHT22;1321;48.690;9.022;2023-03-16T18:17:13;11.70;24.80
2623;DHT22;1321;48.690;9.022;2023-03-16T18:19:43;11.50;24.20
2623;DHT22;1321;48.690;9.022;2023-03-16T18:22:15;11.50;24.70
2623;DHT22;1321;48.690;9.022;2023-03-16T18:24:45;11.50;26.20
2623;DHT22;1321;48.690;9.022;2023-03-16T18:27:14;11.50;25.90
2623;DHT22;1321;48.690;9.022;2023-03-16T18:29:44;11.50;26.60
2623;DHT22;1321;48.690;9.022;2023-03-16T18:32:16;11.40;25.50
2623;DHT22;1321;48.690;9.022;2023-03-16T18:34:47;11.50;27.50
2623;DHT22;1321;48.690;9.022;2023-03-16T18:37:18;11.50;27.10
2623;DHT22;1321;48.690;9.022;2023-03-16T18:39:47;11.30;27.20
2623;DHT22;1321;48.690;9.022;2023-03-16T18:42:18;11.40;28.20
2623;DHT22;1321;48.690;9.022;2023-03-16T18:44:48;11.40;27.60
2623;DHT22;1321;48.690;9.022;2023-03-16T18:47:18;11.30;40.50
2623;DHT22;1321;48.690;9.022;2023-03-16T18:49:47;11.40;27.20
2623;DHT22;1321;48.690;9.022;2023-03-16T18:52:18;11.30;26.90
2623;DHT22;1321;48.690;9.022;2023-03-16T18:54:48;11.30;27.80
2623;DHT22;1321;48.690;9.022;2023-03-16T18:57:18;11.20;27.60
2623;DHT22;1321;48.690;9.022;2023-03-16T18:59:49;11.30;28.60
2623;DHT22;1321;48.690;9.022;2023-03-16T19:02:26;11.30;29.10
2623;DHT22;1321;48.690;9.022;2023-03-16T19:04:57;11.30;29.00
2623;DHT22;1321;48.690;9.022;2023-03-16T19:07:31;11.20;29.10
2623;DHT22;1321;48.690;9.022;2023-03-16T19:10:02;11.20;28.90
2623;DHT22;1321;48.690;9.022;2023-03-16T19:12:34;11.20;29.00
2623;DHT22;1321;48.690;9.022;2023-03-16T19:15:15;11.20;29.60
2623;DHT22;1321;48.690;9.022;2023-03-16T19:17:44;11.10;28.70
2623;DHT22;1321;48.690;9.022;2023-03-16T19:20:14;11.10;29.40
2623;DHT22;1321;48.690;9.022;2023-03-16T19:22:43;11.10;28.70
2623;DHT22;1321;48.690;9.022;2023-03-16T19:25:19;11.00;28.30